sensor_id;sensor_type;location;lat;lon;timestamp;P1;durP1;ratioP1;P2;durP2;ratioP2
56943;SDS011;42848;42.524;12.052;2022-11-20T00:00:54;0.95;;;0.40;;
56943;SDS011;42848;42.524;12.052;2022-11-20T00:03:20;1.35;;;0.40;;
56943;SDS011;42848;42.524;12.052;2022-11-20T00:05:46;0.85;;;0.40;;
56943;SDS011;42848;42.524;12.052;2022-11-20T00:08:12;0.90;;;0.40;;
56943;SDS011;42848;42.524;12.052;2022-11-20T00:10:41;1.08;;;0.47;;
56943;SDS011;42848;42.524;12.052;2022-11-20T00:13:07;1.10;;;0.40;;
56943;SDS011;42848;42.524;12.052;2022-11-20T00:15:33;0.93;;;0.40;;
56943;SDS011;42848;42.524;12.052;2022-11-20T00:17:59;1.13;;;0.40;;
56943;SDS011;42848;42.524;12.052;2022-11-20T00:20:25;0.60;;;0.40;;
56943;SDS011;42848;42.524;12.052;2022-11-20T00:22:50;0.80;;;0.40;;
56943;SDS011;42848;42.524;12.052;2022-11-20T00:25:16;0.70;;;0.40;;
56943;SDS011;42848;42.524;12.052;2022-11-20T00:27:42;0.93;;;0.40;;
56943;SDS011;42848;42.524;12.052;2022-11-20T00:30:08;0.98;;;0.40;;
56943;SDS011;42848;42.524;12.052;2022-11-20T00:32:34;0.85;;;0.40;;
56943;SDS011;42848;42.524;12.052;2022-11-20T00:34:59;1.25;;;0.50;;
56943;SDS011;42848;42.524;12.052;2022-11-20T00:37:25;0.90;;;0.50;;
56943;SDS011;42848;42.524;12.052;2022-11-20T00:39:51;1.55;;;0.50;;
56943;SDS011;42848;42.524;12.052;2022-11-20T00:42:17;1.52;;;0.40;;
56943;SDS011;42848;42.524;12.052;2022-11-20T00:44:42;0.77;;;0.47;;
56943;SDS011;42848;42.524;12.052;2022-11-20T00:47:08;1.10;;;0.50;;
56943;SDS011;42848;42.524;12.052;2022-11-20T00:49:34;0.63;;;0.40;;
56943;SDS011;42848;42.524;12.052;2022-11-20T00:52:00;0.60;;;0.40;;
56943;SDS011;42848;42.524;12.052;2022-11-20T00:54:25;1.00;;;0.40;;
56943;SDS011;42848;42.524;12.052;2022-11-20T00:56:54;1.40;;;0.40;;
56943;SDS011;42848;42.524;12.052;2022-11-20T00:59:19;0.77;;;0.38;;
56943;SDS011;42848;42.524;12.052;2022-11-20T01:01:45;1.33;;;0.45;;
56943;SDS011;42848;42.524;12.052;2022-11-20T01:04:11;0.80;;;0.40;;
56943;SDS011;42848;42.524;12.052;2022-11-20T01:06:37;1.02;;;0.40;;
56943;SDS011;42848;42.524;12.052;2022-11-20T01:09:09;2.35;;;0.45;;
56943;SDS011;42848;42.524;12.052;2022-11-20T01:11:42;0.80;;;0.40;;
56943;SDS011;42848;42.524;12.052;2022-11-20T01:14:10;1.00;;;0.50;;
56943;SDS011;42848;42.524;12.052;2022-11-20T01:19:15;0.88;;;0.47;;
56943;SDS011;42848;42.524;12.052;2022-11-20T01:21:47;0.90;;;0.45;;
56943;SDS011;42848;42.524;12.052;2022-11-20T01:24:16;1.63;;;0.40;;
56943;SDS011;42848;42.524;12.052;2022-11-20T01:26:43;0.70;;;0.40;;
56943;SDS011;42848;42.524;12.052;2022-11-20T01:29:13;0.60;;;0.40;;
56943;SDS011;42848;42.524;12.052;2022-11-20T01:31:41;1.40;;;0.60;;
56943;SDS011;42848;42.524;12.052;2022-11-20T01:34:12;1.17;;;0.40;;
56943;SDS011;42848;42.524;12.052;2022-11-20T01:36:39;1.20;;;0.40;;
56943;SDS011;42848;42.524;12.052;2022-11-20T01:39:14;0.60;;;0.40;;
56943;SDS011;42848;42.524;12.052;2022-11-20T01:41:42;1.10;;;0.40;;
56943;SDS011;42848;42.524;12.052;2022-11-20T01:47:07;0.90;;;0.40;;
56943;SDS011;42848;42.524;12.052;2022-11-20T01:49:37;1.17;;;0.40;;
56943;SDS011;42848;42.524;12.052;2022-11-20T01:52:11;0.52;;;0.30;;
56943;SDS011;42848;42.524;12.052;2022-11-20T01:55:29;1.27;;;0.40;;
56943;SDS011;42848;42.524;12.052;2022-11-20T01:57:31;0.73;;;0.40;;
56943;SDS011;42848;42.524;12.052;2022-11-20T02:00:09;1.10;;;0.30;;
56943;SDS011;42848;42.524;12.052;2022-11-20T02:02:39;0.95;;;0.47;;
56943;SDS011;42848;42.524;12.052;2022-11-20T02:05:10;1.10;;;0.43;;
56943;SDS011;42848;42.524;12.052;2022-11-20T02:08:02;0.57;;;0.30;;
56943;SDS011;42848;42.524;12.052;2022-11-20T02:10:30;1.33;;;0.60;;
56943;SDS011;42848;42.524;12.052;2022-11-20T02:12:57;1.20;;;0.50;;
56943;SDS011;42848;42.524;12.052;2022-11-20T02:18:07;0.90;;;0.40;;
56943;SDS011;42848;42.524;12.052;2022-11-20T02:20:35;0.70;;;0.40;;
56943;SDS011;42848;42.524;12.052;2022-11-20T02:26:06;0.40;;;0.30;;
56943;SDS011;42848;42.524;12.052;2022-11-20T02:28:35;0.57;;;0.30;;
56943;SDS011;42848;42.524;12.052;2022-11-20T02:31:01;0.50;;;0.30;;
56943;SDS011;42848;42.524;12.052;2022-11-20T02:33:27;0.50;;;0.40;;
56943;SDS011;42848;42.524;12.052;2022-11-20T02:35:53;0.47;;;0.30;;
56943;SDS011;42848;42.524;12.052;2022-11-20T02:38:18;0.75;;;0.30;;
56943;SDS011;42848;42.524;12.052;2022-11-20T02:40:44;0.43;;;0.30;;
56943;SDS011;42848;42.524;12.052;2022-11-20T02:43:10;0.98;;;0.40;;
56943;SDS011;42848;42.524;12.052;2022-11-20T02:45:36;1.08;;;0.40;;
56943;SDS011;42848;42.524;12.052;2022-11-20T02:48:02;0.50;;;0.30;;
56943;SDS011;42848;42.524;12.052;2022-11-20T02:50:27;0.43;;;0.30;;
56943;SDS011;42848;42.524;12.052;2022-11-20T02:52:53;0.70;;;0.30;;
56943;SDS011;42848;42.524;12.052;2022-11-20T02:55:19;0.60;;;0.30;;
56943;SDS011;42848;42.524;12.052;2022-11-20T02:57:44;1.17;;;0.40;;
56943;SDS011;42848;42.524;12.052;2022-11-20T03:00:10;0.80;;;0.40;;
56943;SDS011;42848;42.524;12.052;2022-11-20T03:02:36;0.45;;;0.30;;
56943;SDS011;42848;42.524;12.052;2022-11-20T03:05:02;0.90;;;0.40;;
56943;SDS011;42848;42.524;12.052;2022-11-20T03:07:28;0.60;;;0.40;;
56943;SDS011;42848;42.524;12.052;2022-11-20T03:09:53;0.93;;;0.40;;
56943;SDS011;42848;42.524;12.052;2022-11-20T03:12:19;1.02;;;0.50;;
56943;SDS011;42848;42.524;12.052;2022-11-20T03:14:45;0.80;;;0.40;;
56943;SDS011;42848;42.524;12.052;2022-11-20T03:17:10;0.63;;;0.40;;
56943;SDS011;42848;42.524;12.052;2022-11-20T03:19:36;1.15;;;0.47;;
56943;SDS011;42848;42.524;12.052;2022-11-20T03:22:02;1.30;;;0.40;;
56943;SDS011;42848;42.524;12.052;2022-11-20T03:24:28;2.00;;;0.50;;
56943;SDS011;42848;42.524;12.052;2022-11-20T03:26:53;1.15;;;0.50;;
56943;SDS011;42848;42.524;12.052;2022-11-20T03:29:19;0.82;;;0.40;;
56943;SDS011;42848;42.524;12.052;2022-11-20T03:31:45;0.65;;;0.40;;
56943;SDS011;42848;42.524;12.052;2022-11-20T03:34:11;0.90;;;0.43;;
56943;SDS011;42848;42.524;12.052;2022-11-20T03:36:40;1.48;;;0.40;;
56943;SDS011;42848;42.524;12.052;2022-11-20T03:39:07;0.88;;;0.50;;
56943;SDS011;42848;42.524;12.052;2022-11-20T03:41:37;0.63;;;0.40;;
56943;SDS011;42848;42.524;12.052;2022-11-20T03:44:05;1.80;;;0.50;;
56943;SDS011;42848;42.524;12.052;2022-11-20T03:46:33;1.77;;;0.45;;
56943;SDS011;42848;42.524;12.052;2022-11-20T03:48:59;0.88;;;0.40;;
56943;SDS011;42848;42.524;12.052;2022-11-20T03:51:26;0.77;;;0.40;;
56943;SDS011;42848;42.524;12.052;2022-11-20T03:53:56;1.20;;;0.60;;
56943;SDS011;42848;42.524;12.052;2022-11-20T03:56:25;0.80;;;0.40;;
56943;SDS011;42848;42.524;12.052;2022-11-20T03:58:52;1.38;;;0.60;;
56943;SDS011;42848;42.524;12.052;2022-11-20T04:01:19;1.00;;;0.50;;
56943;SDS011;42848;42.524;12.052;2022-11-20T04:03:48;1.35;;;0.50;;
56943;SDS011;42848;42.524;12.052;2022-11-20T04:06:15;1.02;;;0.60;;
56943;SDS011;42848;42.524;12.052;2022-11-20T04:08:46;1.13;;;0.50;;
56943;SDS011;42848;42.524;12.052;2022-11-20T04:11:12;0.80;;;0.50;;
56943;SDS011;42848;42.524;12.052;2022-11-20T04:13:40;1.40;;;0.70;;
56943;SDS011;42848;42.524;12.052;2022-11-20T04:16:08;1.08;;;0.60;;
56943;SDS011;42848;42.524;12.052;2022-11-20T04:18:35;1.10;;;0.55;;
56943;SDS011;42848;42.524;12.052;2022-11-20T04:21:01;1.00;;;0.60;;
56943;SDS011;42848;42.524;12.052;2022-11-20T04:23:28;1.20;;;0.70;;
56943;SDS011;42848;42.524;12.052;2022-11-20T04:25:54;1.10;;;0.60;;
56943;SDS011;42848;42.524;12.052;2022-11-20T04:28:20;1.25;;;0.68;;
56943;SDS011;42848;42.524;12.052;2022-11-20T04:30:45;1.45;;;0.60;;
56943;SDS011;42848;42.524;12.052;2022-11-20T04:33:11;2.05;;;0.65;;
56943;SDS011;42848;42.524;12.052;2022-11-20T04:35:37;1.20;;;0.52;;
56943;SDS011;42848;42.524;12.052;2022-11-20T04:38:03;1.10;;;0.70;;
56943;SDS011;42848;42.524;12.052;2022-11-20T04:40:29;1.55;;;0.68;;
56943;SDS011;42848;42.524;12.052;2022-11-20T04:42:56;2.78;;;0.60;;
56943;SDS011;42848;42.524;12.052;2022-11-20T04:45:22;1.25;;;0.60;;
56943;SDS011;42848;42.524;12.052;2022-11-20T04:47:48;1.20;;;0.70;;
56943;SDS011;42848;42.524;12.052;2022-11-20T04:50:14;1.92;;;0.70;;
56943;SDS011;42848;42.524;12.052;2022-11-20T04:52:40;0.90;;;0.55;;
56943;SDS011;42848;42.524;12.052;2022-11-20T04:55:06;0.90;;;0.50;;
56943;SDS011;42848;42.524;12.052;2022-11-20T04:57:32;1.30;;;0.65;;
56943;SDS011;42848;42.524;12.052;2022-11-20T04:59:57;1.00;;;0.50;;
56943;SDS011;42848;42.524;12.052;2022-11-20T05:02:23;1.30;;;0.52;;
56943;SDS011;42848;42.524;12.052;2022-11-20T05:04:49;1.33;;;0.68;;
56943;SDS011;42848;42.524;12.052;2022-11-20T05:07:15;1.35;;;0.50;;
56943;SDS011;42848;42.524;12.052;2022-11-20T05:09:40;1.00;;;0.60;;
56943;SDS011;42848;42.524;12.052;2022-11-20T05:12:09;1.25;;;0.52;;
56943;SDS011;42848;42.524;12.052;2022-11-20T05:14:35;1.20;;;0.60;;
56943;SDS011;42848;42.524;12.052;2022-11-20T05:17:01;1.00;;;0.55;;
56943;SDS011;42848;42.524;12.052;2022-11-20T05:19:26;1.38;;;0.60;;
56943;SDS011;42848;42.524;12.052;2022-11-20T05:21:52;1.00;;;0.60;;
56943;SDS011;42848;42.524;12.052;2022-11-20T05:24:17;1.13;;;0.50;;
56943;SDS011;42848;42.524;12.052;2022-11-20T05:26:43;1.40;;;0.70;;
56943;SDS011;42848;42.524;12.052;2022-11-20T05:29:10;1.23;;;0.63;;
56943;SDS011;42848;42.524;12.052;2022-11-20T05:31:38;1.52;;;0.60;;
56943;SDS011;42848;42.524;12.052;2022-11-20T05:34:05;1.38;;;0.70;;
56943;SDS011;42848;42.524;12.052;2022-11-20T05:36:30;1.23;;;0.80;;
56943;SDS011;42848;42.524;12.052;2022-11-20T05:38:56;1.00;;;0.52;;
56943;SDS011;42848;42.524;12.052;2022-11-20T05:41:22;1.33;;;0.73;;
56943;SDS011;42848;42.524;12.052;2022-11-20T05:43:48;1.35;;;0.60;;
56943;SDS011;42848;42.524;12.052;2022-11-20T05:46:16;1.10;;;0.60;;
56943;SDS011;42848;42.524;12.052;2022-11-20T05:48:43;2.78;;;0.60;;
56943;SDS011;42848;42.524;12.052;2022-11-20T05:51:11;2.17;;;0.73;;
56943;SDS011;42848;42.524;12.052;2022-11-20T05:53:38;1.25;;;0.60;;
56943;SDS011;42848;42.524;12.052;2022-11-20T05:56:08;1.70;;;0.68;;
56943;SDS011;42848;42.524;12.052;2022-11-20T05:58:36;1.35;;;0.70;;
56943;SDS011;42848;42.524;12.052;2022-11-20T06:01:03;2.38;;;0.60;;
56943;SDS011;42848;42.524;12.052;2022-11-20T06:03:30;2.22;;;0.70;;
56943;SDS011;42848;42.524;12.052;2022-11-20T06:05:58;1.23;;;0.70;;
56943;SDS011;42848;42.524;12.052;2022-11-20T06:08:24;1.25;;;0.60;;
56943;SDS011;42848;42.524;12.052;2022-11-20T06:10:49;0.98;;;0.60;;
56943;SDS011;42848;42.524;12.052;2022-11-20T06:13:15;1.50;;;0.60;;
56943;SDS011;42848;42.524;12.052;2022-11-20T06:15:41;1.90;;;0.60;;
56943;SDS011;42848;42.524;12.052;2022-11-20T06:18:06;1.65;;;0.60;;
56943;SDS011;42848;42.524;12.052;2022-11-20T06:20:32;1.20;;;0.50;;
56943;SDS011;42848;42.524;12.052;2022-11-20T06:22:58;0.93;;;0.60;;
56943;SDS011;42848;42.524;12.052;2022-11-20T06:25:23;1.10;;;0.60;;
56943;SDS011;42848;42.524;12.052;2022-11-20T06:27:49;1.20;;;0.60;;
56943;SDS011;42848;42.524;12.052;2022-11-20T06:30:15;1.25;;;0.70;;
56943;SDS011;42848;42.524;12.052;2022-11-20T06:32:40;1.27;;;0.70;;
56943;SDS011;42848;42.524;12.052;2022-11-20T06:35:06;1.92;;;1.08;;
56943;SDS011;42848;42.524;12.052;2022-11-20T06:37:32;2.28;;;1.30;;
56943;SDS011;42848;42.524;12.052;2022-11-20T06:39:58;1.90;;;0.82;;
56943;SDS011;42848;42.524;12.052;2022-11-20T06:42:24;1.60;;;0.80;;
56943;SDS011;42848;42.524;12.052;2022-11-20T06:44:49;3.60;;;1.63;;
56943;SDS011;42848;42.524;12.052;2022-11-20T06:47:15;2.30;;;1.10;;
56943;SDS011;42848;42.524;12.052;2022-11-20T06:49:41;1.40;;;0.90;;
56943;SDS011;42848;42.524;12.052;2022-11-20T06:52:06;1.30;;;0.70;;
56943;SDS011;42848;42.524;12.052;2022-11-20T06:54:32;1.42;;;0.80;;
56943;SDS011;42848;42.524;12.052;2022-11-20T06:56:58;1.05;;;0.60;;
56943;SDS011;42848;42.524;12.052;2022-11-20T06:59:23;1.75;;;0.90;;
56943;SDS011;42848;42.524;12.052;2022-11-20T07:01:49;1.50;;;0.80;;
56943;SDS011;42848;42.524;12.052;2022-11-20T07:04:15;1.23;;;0.70;;
56943;SDS011;42848;42.524;12.052;2022-11-20T07:06:40;0.80;;;0.50;;
56943;SDS011;42848;42.524;12.052;2022-11-20T07:09:06;1.23;;;0.52;;
56943;SDS011;42848;42.524;12.052;2022-11-20T07:11:32;1.00;;;0.50;;
56943;SDS011;42848;42.524;12.052;2022-11-20T07:13:57;1.60;;;0.50;;
56943;SDS011;42848;42.524;12.052;2022-11-20T07:16:23;1.52;;;0.70;;
56943;SDS011;42848;42.524;12.052;2022-11-20T07:18:49;1.83;;;0.60;;
56943;SDS011;42848;42.524;12.052;2022-11-20T07:21:14;1.35;;;0.80;;
56943;SDS011;42848;42.524;12.052;2022-11-20T07:23:40;1.20;;;0.68;;
56943;SDS011;42848;42.524;12.052;2022-11-20T07:26:07;1.40;;;0.80;;
56943;SDS011;42848;42.524;12.052;2022-11-20T07:28:34;1.65;;;0.82;;
56943;SDS011;42848;42.524;12.052;2022-11-20T07:31:00;1.30;;;0.70;;
56943;SDS011;42848;42.524;12.052;2022-11-20T07:33:26;1.48;;;0.75;;
56943;SDS011;42848;42.524;12.052;2022-11-20T07:35:52;2.30;;;1.25;;
56943;SDS011;42848;42.524;12.052;2022-11-20T07:38:18;1.10;;;0.68;;
56943;SDS011;42848;42.524;12.052;2022-11-20T07:40:43;1.95;;;0.80;;
56943;SDS011;42848;42.524;12.052;2022-11-20T07:43:09;1.73;;;1.00;;
56943;SDS011;42848;42.524;12.052;2022-11-20T07:45:35;2.65;;;1.20;;
56943;SDS011;42848;42.524;12.052;2022-11-20T07:48:01;2.15;;;1.00;;
56943;SDS011;42848;42.524;12.052;2022-11-20T07:50:27;1.58;;;0.85;;
56943;SDS011;42848;42.524;12.052;2022-11-20T07:52:59;1.90;;;1.30;;
56943;SDS011;42848;42.524;12.052;2022-11-20T07:55:26;1.70;;;1.08;;
56943;SDS011;42848;42.524;12.052;2022-11-20T07:57:57;2.83;;;1.50;;
56943;SDS011;42848;42.524;12.052;2022-11-20T08:00:23;2.63;;;1.65;;
56943;SDS011;42848;42.524;12.052;2022-11-20T08:02:50;3.72;;;2.50;;
56943;SDS011;42848;42.524;12.052;2022-11-20T08:05:16;4.38;;;2.55;;
56943;SDS011;42848;42.524;12.052;2022-11-20T08:07:43;2.35;;;1.10;;
56943;SDS011;42848;42.524;12.052;2022-11-20T08:10:10;2.42;;;1.40;;
56943;SDS011;42848;42.524;12.052;2022-11-20T08:12:43;2.13;;;1.20;;
56943;SDS011;42848;42.524;12.052;2022-11-20T08:15:31;3.43;;;2.10;;
56943;SDS011;42848;42.524;12.052;2022-11-20T08:18:04;3.63;;;1.85;;
56943;SDS011;42848;42.524;12.052;2022-11-20T08:22:58;2.88;;;1.70;;
56943;SDS011;42848;42.524;12.052;2022-11-20T08:25:25;2.28;;;1.15;;
56943;SDS011;42848;42.524;12.052;2022-11-20T08:27:51;5.05;;;2.70;;
56943;SDS011;42848;42.524;12.052;2022-11-20T08:30:17;2.40;;;1.70;;
56943;SDS011;42848;42.524;12.052;2022-11-20T08:32:42;1.90;;;1.10;;
56943;SDS011;42848;42.524;12.052;2022-11-20T08:35:08;2.83;;;1.70;;
56943;SDS011;42848;42.524;12.052;2022-11-20T08:37:34;2.60;;;1.30;;
56943;SDS011;42848;42.524;12.052;2022-11-20T08:39:59;7.72;;;4.50;;
56943;SDS011;42848;42.524;12.052;2022-11-20T08:42:25;5.03;;;2.90;;
56943;SDS011;42848;42.524;12.052;2022-11-20T08:44:51;4.22;;;2.60;;
56943;SDS011;42848;42.524;12.052;2022-11-20T08:47:16;2.55;;;1.75;;
56943;SDS011;42848;42.524;12.052;2022-11-20T08:49:42;5.25;;;3.22;;
56943;SDS011;42848;42.524;12.052;2022-11-20T08:52:07;3.25;;;2.33;;
56943;SDS011;42848;42.524;12.052;2022-11-20T08:54:33;4.78;;;2.85;;
56943;SDS011;42848;42.524;12.052;2022-11-20T08:56:59;14.20;;;6.80;;
56943;SDS011;42848;42.524;12.052;2022-11-20T08:59:24;21.35;;;8.93;;
56943;SDS011;42848;42.524;12.052;2022-11-20T09:01:50;5.45;;;3.22;;
56943;SDS011;42848;42.524;12.052;2022-11-20T09:04:15;10.45;;;7.32;;
56943;SDS011;42848;42.524;12.052;2022-11-20T09:06:41;5.30;;;3.33;;
56943;SDS011;42848;42.524;12.052;2022-11-20T09:09:07;13.02;;;7.75;;
56943;SDS011;42848;42.524;12.052;2022-11-20T09:11:34;10.48;;;7.28;;
56943;SDS011;42848;42.524;12.052;2022-11-20T09:14:00;3.67;;;2.60;;
56943;SDS011;42848;42.524;12.052;2022-11-20T09:16:27;4.43;;;2.60;;
56943;SDS011;42848;42.524;12.052;2022-11-20T09:18:53;6.65;;;4.45;;
56943;SDS011;42848;42.524;12.052;2022-11-20T09:21:19;5.43;;;2.75;;
56943;SDS011;42848;42.524;12.052;2022-11-20T09:23:44;4.00;;;2.75;;
56943;SDS011;42848;42.524;12.052;2022-11-20T09:26:11;2.70;;;1.80;;
56943;SDS011;42848;42.524;12.052;2022-11-20T09:28:39;3.10;;;1.92;;
56943;SDS011;42848;42.524;12.052;2022-11-20T09:31:05;3.30;;;1.80;;
56943;SDS011;42848;42.524;12.052;2022-11-20T09:33:39;3.50;;;1.85;;
56943;SDS011;42848;42.524;12.052;2022-11-20T09:36:04;2.20;;;1.60;;
56943;SDS011;42848;42.524;12.052;2022-11-20T09:38:30;9.50;;;6.20;;
56943;SDS011;42848;42.524;12.052;2022-11-20T09:41:03;15.27;;;8.85;;
56943;SDS011;42848;42.524;12.052;2022-11-20T09:49:04;2.60;;;1.50;;
56943;SDS011;42848;42.524;12.052;2022-11-20T09:54:19;3.15;;;1.73;;
56943;SDS011;42848;42.524;12.052;2022-11-20T09:56:52;3.72;;;1.95;;
56943;SDS011;42848;42.524;12.052;2022-11-20T10:01:47;2.20;;;1.80;;
56943;SDS011;42848;42.524;12.052;2022-11-20T10:04:15;4.15;;;1.80;;
56943;SDS011;42848;42.524;12.052;2022-11-20T10:06:56;4.93;;;2.30;;
56943;SDS011;42848;42.524;12.052;2022-11-20T10:09:34;3.40;;;1.90;;
56943;SDS011;42848;42.524;12.052;2022-11-20T10:12:14;2.30;;;1.88;;
56943;SDS011;42848;42.524;12.052;2022-11-20T10:20:40;2.22;;;1.77;;
56943;SDS011;42848;42.524;12.052;2022-11-20T10:26:00;6.18;;;4.45;;
56943;SDS011;42848;42.524;12.052;2022-11-20T10:28:52;3.42;;;1.90;;
56943;SDS011;42848;42.524;12.052;2022-11-20T10:34:21;1.90;;;1.30;;
56943;SDS011;42848;42.524;12.052;2022-11-20T10:42:52;3.25;;;1.40;;
56943;SDS011;42848;42.524;12.052;2022-11-20T10:47:56;5.85;;;3.50;;
56943;SDS011;42848;42.524;12.052;2022-11-20T10:51:18;2.28;;;1.50;;
56943;SDS011;42848;42.524;12.052;2022-11-20T11:01:56;4.82;;;3.10;;
56943;SDS011;42848;42.524;12.052;2022-11-20T11:06:54;5.43;;;1.67;;
56943;SDS011;42848;42.524;12.052;2022-11-20T11:09:33;2.08;;;1.48;;
56943;SDS011;42848;42.524;12.052;2022-11-20T11:12:05;2.72;;;1.30;;
56943;SDS011;42848;42.524;12.052;2022-11-20T11:14:41;1.85;;;1.27;;
56943;SDS011;42848;42.524;12.052;2022-11-20T11:20:17;4.85;;;3.08;;
56943;SDS011;42848;42.524;12.052;2022-11-20T11:25:20;4.35;;;2.20;;
56943;SDS011;42848;42.524;12.052;2022-11-20T11:27:53;3.63;;;1.75;;
56943;SDS011;42848;42.524;12.052;2022-11-20T11:30:23;3.95;;;1.90;;
56943;SDS011;42848;42.524;12.052;2022-11-20T11:32:50;1.92;;;1.52;;
56943;SDS011;42848;42.524;12.052;2022-11-20T11:35:31;2.28;;;1.35;;
56943;SDS011;42848;42.524;12.052;2022-11-20T11:38:07;2.40;;;1.60;;
56943;SDS011;42848;42.524;12.052;2022-11-20T11:40:39;18.13;;;10.32;;
56943;SDS011;42848;42.524;12.052;2022-11-20T11:43:06;3.20;;;2.20;;
56943;SDS011;42848;42.524;12.052;2022-11-20T11:46:02;4.78;;;3.05;;
56943;SDS011;42848;42.524;12.052;2022-11-20T11:48:30;3.63;;;2.55;;
56943;SDS011;42848;42.524;12.052;2022-11-20T11:50:56;7.35;;;3.80;;
56943;SDS011;42848;42.524;12.052;2022-11-20T11:53:21;2.83;;;1.50;;
56943;SDS011;42848;42.524;12.052;2022-11-20T11:55:53;2.92;;;1.70;;
56943;SDS011;42848;42.524;12.052;2022-11-20T11:58:40;3.75;;;2.20;;
56943;SDS011;42848;42.524;12.052;2022-11-20T12:01:24;3.13;;;1.90;;
56943;SDS011;42848;42.524;12.052;2022-11-20T12:04:05;5.68;;;2.63;;
56943;SDS011;42848;42.524;12.052;2022-11-20T12:06:46;1.83;;;1.50;;
56943;SDS011;42848;42.524;12.052;2022-11-20T12:09:16;2.20;;;1.65;;
56943;SDS011;42848;42.524;12.052;2022-11-20T12:11:46;2.47;;;1.70;;
56943;SDS011;42848;42.524;12.052;2022-11-20T12:14:37;2.50;;;1.70;;
56943;SDS011;42848;42.524;12.052;2022-11-20T12:17:07;2.60;;;1.80;;
56943;SDS011;42848;42.524;12.052;2022-11-20T12:19:36;2.88;;;1.50;;
56943;SDS011;42848;42.524;12.052;2022-11-20T12:28:02;3.60;;;1.98;;
56943;SDS011;42848;42.524;12.052;2022-11-20T12:33:42;3.63;;;2.50;;
56943;SDS011;42848;42.524;12.052;2022-11-20T12:36:40;4.85;;;3.80;;
56943;SDS011;42848;42.524;12.052;2022-11-20T12:39:34;4.95;;;2.97;;
56943;SDS011;42848;42.524;12.052;2022-11-20T12:50:22;3.78;;;2.80;;
56943;SDS011;42848;42.524;12.052;2022-11-20T12:58:31;6.40;;;4.00;;
56943;SDS011;42848;42.524;12.052;2022-11-20T13:06:50;4.25;;;3.50;;
56943;SDS011;42848;42.524;12.052;2022-11-20T13:09:17;6.22;;;4.13;;
56943;SDS011;42848;42.524;12.052;2022-11-20T13:12:00;4.15;;;2.67;;
56943;SDS011;42848;42.524;12.052;2022-11-20T13:14:39;6.10;;;4.10;;
56943;SDS011;42848;42.524;12.052;2022-11-20T13:19:53;3.20;;;2.50;;
56943;SDS011;42848;42.524;12.052;2022-11-20T13:22:41;6.15;;;4.00;;
56943;SDS011;42848;42.524;12.052;2022-11-20T13:25:21;3.83;;;2.60;;
56943;SDS011;42848;42.524;12.052;2022-11-20T13:27:49;3.42;;;2.40;;
56943;SDS011;42848;42.524;12.052;2022-11-20T13:30:16;3.92;;;3.08;;
56943;SDS011;42848;42.524;12.052;2022-11-20T13:33:27;5.55;;;2.85;;
56943;SDS011;42848;42.524;12.052;2022-11-20T13:35:55;5.03;;;3.03;;
56943;SDS011;42848;42.524;12.052;2022-11-20T13:38:23;3.20;;;2.20;;
56943;SDS011;42848;42.524;12.052;2022-11-20T13:40:53;5.38;;;3.25;;
56943;SDS011;42848;42.524;12.052;2022-11-20T13:46:00;6.10;;;3.30;;
56943;SDS011;42848;42.524;12.052;2022-11-20T13:48:49;7.00;;;4.75;;
56943;SDS011;42848;42.524;12.052;2022-11-20T13:51:23;5.38;;;2.97;;
56943;SDS011;42848;42.524;12.052;2022-11-20T14:02:36;20.98;;;12.88;;
56943;SDS011;42848;42.524;12.052;2022-11-20T14:05:02;6.47;;;4.53;;
56943;SDS011;42848;42.524;12.052;2022-11-20T14:07:37;6.75;;;4.20;;
56943;SDS011;42848;42.524;12.052;2022-11-20T14:10:06;8.18;;;4.57;;
56943;SDS011;42848;42.524;12.052;2022-11-20T14:12:44;4.82;;;3.08;;
56943;SDS011;42848;42.524;12.052;2022-11-20T14:15:23;3.72;;;2.35;;
56943;SDS011;42848;42.524;12.052;2022-11-20T14:17:51;3.25;;;2.38;;
56943;SDS011;42848;42.524;12.052;2022-11-20T14:20:17;2.38;;;1.65;;
56943;SDS011;42848;42.524;12.052;2022-11-20T14:22:50;2.97;;;1.67;;
56943;SDS011;42848;42.524;12.052;2022-11-20T14:28:04;4.57;;;2.72;;
56943;SDS011;42848;42.524;12.052;2022-11-20T14:30:43;3.42;;;2.25;;
56943;SDS011;42848;42.524;12.052;2022-11-20T14:33:10;26.17;;;16.45;;
56943;SDS011;42848;42.524;12.052;2022-11-20T14:35:44;4.18;;;2.67;;
56943;SDS011;42848;42.524;12.052;2022-11-20T14:38:15;7.28;;;4.50;;
56943;SDS011;42848;42.524;12.052;2022-11-20T14:40:43;6.20;;;4.00;;
56943;SDS011;42848;42.524;12.052;2022-11-20T14:43:17;2.03;;;1.33;;
56943;SDS011;42848;42.524;12.052;2022-11-20T14:46:01;2.97;;;1.70;;
56943;SDS011;42848;42.524;12.052;2022-11-20T14:48:33;4.45;;;2.40;;
56943;SDS011;42848;42.524;12.052;2022-11-20T14:51:08;5.18;;;2.53;;
56943;SDS011;42848;42.524;12.052;2022-11-20T14:53:35;3.60;;;2.50;;
56943;SDS011;42848;42.524;12.052;2022-11-20T14:56:02;2.47;;;1.70;;
56943;SDS011;42848;42.524;12.052;2022-11-20T14:58:29;3.97;;;2.30;;
56943;SDS011;42848;42.524;12.052;2022-11-20T15:03:32;13.45;;;8.50;;
56943;SDS011;42848;42.524;12.052;2022-11-20T15:05:58;6.00;;;3.15;;
56943;SDS011;42848;42.524;12.052;2022-11-20T15:08:24;5.43;;;3.22;;
56943;SDS011;42848;42.524;12.052;2022-11-20T15:10:51;7.20;;;4.20;;
56943;SDS011;42848;42.524;12.052;2022-11-20T15:13:31;3.95;;;2.20;;
56943;SDS011;42848;42.524;12.052;2022-11-20T15:16:00;5.70;;;3.28;;
56943;SDS011;42848;42.524;12.052;2022-11-20T15:18:28;6.50;;;3.85;;
56943;SDS011;42848;42.524;12.052;2022-11-20T15:21:00;4.15;;;3.13;;
56943;SDS011;42848;42.524;12.052;2022-11-20T15:23:28;6.00;;;3.55;;
56943;SDS011;42848;42.524;12.052;2022-11-20T15:25:54;4.68;;;2.83;;
56943;SDS011;42848;42.524;12.052;2022-11-20T15:28:23;7.18;;;4.88;;
56943;SDS011;42848;42.524;12.052;2022-11-20T15:30:51;4.80;;;3.22;;
56943;SDS011;42848;42.524;12.052;2022-11-20T15:33:17;4.35;;;3.30;;
56943;SDS011;42848;42.524;12.052;2022-11-20T15:35:43;5.32;;;3.38;;
56943;SDS011;42848;42.524;12.052;2022-11-20T15:38:09;5.50;;;3.95;;
56943;SDS011;42848;42.524;12.052;2022-11-20T15:40:35;6.35;;;3.72;;
56943;SDS011;42848;42.524;12.052;2022-11-20T15:43:01;4.38;;;2.55;;
56943;SDS011;42848;42.524;12.052;2022-11-20T15:45:28;9.95;;;4.78;;
56943;SDS011;42848;42.524;12.052;2022-11-20T15:47:58;7.57;;;6.10;;
56943;SDS011;42848;42.524;12.052;2022-11-20T15:50:26;7.43;;;4.60;;
56943;SDS011;42848;42.524;12.052;2022-11-20T15:52:58;4.27;;;3.00;;
56943;SDS011;42848;42.524;12.052;2022-11-20T15:55:24;10.82;;;7.30;;
56943;SDS011;42848;42.524;12.052;2022-11-20T15:57:49;12.35;;;8.70;;
56943;SDS011;42848;42.524;12.052;2022-11-20T16:00:15;11.38;;;7.88;;
56943;SDS011;42848;42.524;12.052;2022-11-20T16:02:41;18.40;;;12.35;;
56943;SDS011;42848;42.524;12.052;2022-11-20T16:05:10;13.25;;;9.65;;
56943;SDS011;42848;42.524;12.052;2022-11-20T16:07:37;11.38;;;8.52;;
56943;SDS011;42848;42.524;12.052;2022-11-20T16:10:03;14.15;;;10.32;;
56943;SDS011;42848;42.524;12.052;2022-11-20T16:12:29;10.00;;;7.10;;
56943;SDS011;42848;42.524;12.052;2022-11-20T16:15:13;6.05;;;4.30;;
56943;SDS011;42848;42.524;12.052;2022-11-20T16:17:57;7.05;;;4.30;;
56943;SDS011;42848;42.524;12.052;2022-11-20T16:20:23;5.47;;;3.83;;
56943;SDS011;42848;42.524;12.052;2022-11-20T16:22:48;6.10;;;4.78;;
56943;SDS011;42848;42.524;12.052;2022-11-20T16:25:14;5.80;;;2.58;;
56943;SDS011;42848;42.524;12.052;2022-11-20T16:27:39;4.25;;;2.67;;
56943;SDS011;42848;42.524;12.052;2022-11-20T16:30:05;9.05;;;5.45;;
56943;SDS011;42848;42.524;12.052;2022-11-20T16:32:31;5.82;;;3.50;;